Time;durP1;ratioP1;P1;durP2;ratioP2;P2;SDS_P1;SDS_P2;PMS_P1;PMS_P2;Temp;Humidity;BMP_temperature;BMP_pressure;BME280_temperature;BME280_humidity;BME280_pressure;Samples;Min_cycle;Max_cycle;Signal;HPM_P1;HPM_P2
2023/01/11 00:00:04;;;;;;;0.20;0.20;;;8.70;99.90;;;;;;5094774;28;20052;-85
2023/01/11 00:02:31;;;;;;;0.15;0.15;;;8.60;99.90;;;;;;5094879;28;20531;-85
2023/01/11 00:04:56;;;;;;;0.35;0.35;;;8.50;99.90;;;;;;5095090;28;20040;-85
2023/01/11 00:07:22;;;;;;;2.55;0.80;;;8.50;99.90;;;;;;5095509;28;20040;-84
2023/01/11 00:09:48;;;;;;;0.10;0.10;;;8.60;99.90;;;;;;5095805;28;20055;-85
2023/01/11 00:12:13;;;;;;;0.75;0.63;;;8.50;99.90;;;;;;5094685;28;20047;-84
2023/01/11 00:14:39;;;;;;;0.28;0.20;;;8.50;99.90;;;;;;5094736;28;20107;-84
2023/01/11 00:17:05;;;;;;;0.00;0.00;;;8.60;99.90;;;;;;5094196;28;20047;-83
2023/01/11 00:19:31;;;;;;;0.10;0.10;;;8.70;99.90;;;;;;5094268;28;20036;-83
2023/01/11 00:21:56;;;;;;;0.10;0.10;;;8.70;99.90;;;;;;5094338;28;20044;-83
2023/01/11 00:24:22;;;;;;;0.00;0.00;;;8.70;99.90;;;;;;5094435;28;20490;-85
2023/01/11 00:26:47;;;;;;;0.00;0.00;;;8.80;99.90;;;;;;5094289;28;20040;-84
2023/01/11 00:29:13;;;;;;;0.75;0.52;;;8.80;99.90;;;;;;5094537;28;20040;-84
2023/01/11 00:31:39;;;;;;;0.25;0.25;;;8.80;99.90;;;;;;5094199;28;20079;-84
2023/01/11 00:34:04;;;;;;;0.10;0.10;;;8.90;99.90;;;;;;5096174;28;20441;-84
2023/01/11 00:36:30;;;;;;;0.30;0.30;;;8.90;99.90;;;;;;5097580;28;20051;-83
2023/01/11 00:38:55;;;;;;;0.00;0.00;;;8.90;99.90;;;;;;5097641;28;20043;-83
2023/01/11 00:49:38;;;;;;;1.55;0.32;;;9.00;99.90;;;;;;5097492;28;20095;-84
2023/01/11 00:52:07;;;;;;;0.20;0.17;;;9.00;99.90;;;;;;5101669;28;20072;-84
2023/01/11 00:54:34;;;;;;;1.75;0.20;;;9.00;99.90;;;;;;5110305;28;20051;-83
2023/01/11 00:57:00;;;;;;;0.47;0.30;;;9.00;99.90;;;;;;5106651;28;20036;-84
2023/01/11 00:59:25;;;;;;;0.00;0.00;;;9.00;99.90;;;;;;5099735;28;20048;-84
2023/01/11 01:01:51;;;;;;;0.10;0.10;;;9.10;99.90;;;;;;5099041;28;20083;-84
2023/01/11 01:04:17;;;;;;;0.00;0.00;;;9.10;99.90;;;;;;5098037;28;20139;-84
2023/01/11 01:06:42;;;;;;;0.00;0.00;;;9.10;99.90;;;;;;5098549;28;20044;-84
2023/01/11 01:09:08;;;;;;;0.10;0.10;;;9.10;99.90;;;;;;5098104;28;20044;-84
2023/01/11 01:11:34;;;;;;;0.20;0.20;;;9.20;99.90;;;;;;5097625;28;20105;-84
2023/01/11 01:16:46;;;;;;;0.10;0.08;;;9.20;99.90;;;;;;5097708;28;20087;-84
2023/01/11 01:19:12;;;;;;;0.25;0.20;;;9.20;99.90;;;;;;5097786;28;20052;-84
2023/01/11 01:21:38;;;;;;;0.30;0.20;;;9.30;99.90;;;;;;5095874;28;20067;-84
2023/01/11 01:24:04;;;;;;;0.05;0.05;;;9.30;99.90;;;;;;5097305;28;20076;-83
2023/01/11 01:26:29;;;;;;;0.32;0.32;;;9.20;99.90;;;;;;5097814;28;20052;-84
2023/01/11 01:28:55;;;;;;;0.38;0.38;;;9.20;99.90;;;;;;5097479;28;20043;-84
2023/01/11 01:31:20;;;;;;;0.20;0.10;;;9.20;99.90;;;;;;5097645;28;20119;-84
2023/01/11 01:33:46;;;;;;;0.00;0.00;;;9.30;99.90;;;;;;5097192;28;20387;-83
2023/01/11 01:36:11;;;;;;;0.20;0.20;;;9.40;99.90;;;;;;5097552;28;20177;-84
2023/01/11 01:38:37;;;;;;;0.60;0.20;;;9.40;99.90;;;;;;5097123;28;20056;-84
2023/01/11 01:41:03;;;;;;;0.15;0.15;;;9.40;99.90;;;;;;5097378;28;20036;-84
2023/01/11 01:43:55;;;;;;;0.25;0.25;;;9.40;99.90;;;;;;5096290;28;20446;-84
2023/01/11 01:46:25;;;;;;;0.68;0.65;;;9.40;99.90;;;;;;5097425;28;20072;-84
2023/01/11 01:49:06;;;;;;;0.03;0.03;;;9.40;99.90;;;;;;5096453;28;20051;-84
2023/01/11 01:51:43;;;;;;;0.00;0.00;;;9.40;99.90;;;;;;5096630;28;20044;-83
2023/01/11 01:54:13;;;;;;;0.00;0.00;;;9.50;99.90;;;;;;5095712;28;20040;-84
2023/01/11 01:56:48;;;;;;;0.05;0.05;;;9.50;99.90;;;;;;5096532;28;20101;-84
2023/01/11 01:59:16;;;;;;;0.28;0.13;;;9.50;99.90;;;;;;5096593;28;20487;-84
2023/01/11 02:01:48;;;;;;;0.17;0.17;;;9.60;99.90;;;;;;5096615;28;20085;-84
2023/01/11 02:04:32;;;;;;;0.00;0.00;;;9.60;99.90;;;;;;5096592;28;20059;-83
2023/01/11 02:07:06;;;;;;;0.20;0.20;;;9.60;99.90;;;;;;5096513;28;20127;-84
2023/01/11 02:09:41;;;;;;;0.00;0.00;;;9.70;99.90;;;;;;5096700;28;20048;-84
2023/01/11 02:12:07;;;;;;;0.17;0.17;;;9.70;99.90;;;;;;5095784;28;20044;-84
2023/01/11 02:14:35;;;;;;;0.35;0.20;;;10.40;99.90;;;;;;5096679;28;20040;-83
2023/01/11 02:17:01;;;;;;;0.25;0.20;;;9.70;99.90;;;;;;5096651;28;20044;-84
2023/01/11 02:19:57;;;;;;;0.00;0.00;;;9.70;99.90;;;;;;5096877;28;20399;-83
2023/01/11 02:22:34;;;;;;;0.00;0.00;;;9.70;99.90;;;;;;5095656;28;20491;-84
2023/01/11 02:25:09;;;;;;;0.00;0.00;;;9.80;99.90;;;;;;5095679;28;20483;-84
2023/01/11 02:27:53;;;;;;;0.00;0.00;;;9.80;99.90;;;;;;5095889;28;20407;-83
2023/01/11 02:30:23;;;;;;;0.52;0.52;;;9.80;99.90;;;;;;5096163;28;20476;-84
2023/01/11 02:33:19;;;;;;;0.00;0.00;;;9.90;99.90;;;;;;5093832;28;20050;-84
2023/01/11 02:36:07;;;;;;;0.00;0.00;;;9.90;99.90;;;;;;5095815;28;20044;-84
2023/01/11 02:38:45;;;;;;;0.00;0.00;;;9.90;99.90;;;;;;5095681;28;20075;-84
2023/01/11 02:45:00;;;;;;;0.88;0.80;;;9.90;99.90;;;;;;5096307;28;20067;-83
2023/01/11 02:47:20;;;;;;;0.00;0.00;;;9.90;99.90;;;;;;5095926;28;20048;-84
2023/01/11 02:50:01;;;;;;;0.00;0.00;;;10.00;99.90;;;;;;5095499;28;20063;-84
2023/01/11 02:52:57;;;;;;;0.65;0.15;;;10.00;99.90;;;;;;5094740;28;20042;-84
2023/01/11 02:55:27;;;;;;;0.00;0.00;;;10.00;99.90;;;;;;5084422;28;20048;-83
2023/01/11 02:57:56;;;;;;;0.00;0.00;;;10.00;99.90;;;;;;5095743;28;20039;-84
2023/01/11 03:00:23;;;;;;;0.10;0.10;;;10.10;99.90;;;;;;5095210;28;20066;-83
2023/01/11 03:03:26;;;;;;;0.00;0.00;;;10.00;99.90;;;;;;5093186;28;20039;-83
2023/01/11 03:06:05;;;;;;;0.00;0.00;;;10.00;99.90;;;;;;5089672;28;20040;-84
2023/01/11 03:08:57;;;;;;;0.00;0.00;;;10.00;99.90;;;;;;5095098;28;20411;-83
2023/01/11 03:14:36;;;;;;;0.30;0.10;;;10.10;99.90;;;;;;5096482;28;20399;-84
2023/01/11 03:17:20;;;;;;;0.13;0.03;;;10.00;99.90;;;;;;5096082;28;20048;-84
2023/01/11 03:19:52;;;;;;;0.00;0.00;;;10.00;99.90;;;;;;5096358;28;20048;-84
2023/01/11 03:22:45;;;;;;;0.00;0.00;;;10.60;99.90;;;;;;5096156;28;20419;-84
2023/01/11 03:25:30;;;;;;;0.00;0.00;;;10.10;99.90;;;;;;5095226;28;20051;-84
2023/01/11 03:28:05;;;;;;;0.00;0.00;;;10.10;99.90;;;;;;5096362;28;20525;-84
2023/01/11 03:30:56;;;;;;;0.00;0.00;;;10.10;99.90;;;;;;5096447;28;20051;-84
2023/01/11 03:33:29;;;;;;;0.03;0.03;;;10.20;99.90;;;;;;5096166;28;20061;-85
2023/01/11 03:36:21;;;;;;;0.00;0.00;;;10.20;99.90;;;;;;5096530;28;20047;-85
2023/01/11 03:39:04;;;;;;;0.00;0.00;;;10.20;99.90;;;;;;5096327;28;20048;-85
2023/01/11 03:41:35;;;;;;;0.20;0.10;;;10.20;99.90;;;;;;5097049;28;20031;-85
2023/01/11 03:44:04;;;;;;;0.00;0.00;;;10.20;99.90;;;;;;5096422;28;20044;-85
2023/01/11 03:46:37;;;;;;;0.00;0.00;;;10.20;99.90;;;;;;5096478;28;20398;-84
2023/01/11 03:49:11;;;;;;;0.00;0.00;;;10.20;99.90;;;;;;5095554;28;20499;-84
2023/01/11 03:51:41;;;;;;;0.00;0.00;;;10.20;99.90;;;;;;5095901;28;20067;-85
2023/01/11 03:54:10;;;;;;;0.00;0.00;;;10.20;99.90;;;;;;5096544;28;20087;-85
2023/01/11 03:56:51;;;;;;;0.00;0.00;;;10.20;99.90;;;;;;5096608;28;20044;-85
2023/01/11 03:59:17;;;;;;;0.00;0.00;;;10.30;99.90;;;;;;5096437;28;20441;-85
2023/01/11 04:01:43;;;;;;;0.00;0.00;;;10.30;99.90;;;;;;5096322;28;20048;-85
2023/01/11 04:04:08;;;;;;;0.30;0.20;;;10.90;99.90;;;;;;5095869;28;20438;-85
2023/01/11 04:06:36;;;;;;;0.00;0.00;;;10.30;99.90;;;;;;5096356;28;20036;-84
2023/01/11 04:09:03;;;;;;;0.00;0.00;;;10.30;99.90;;;;;;5098906;28;20047;-84
2023/01/11 04:11:28;;;;;;;0.00;0.00;;;10.70;99.90;;;;;;5100403;28;20047;-85
2023/01/11 04:13:54;;;;;;;0.00;0.00;;;10.30;99.90;;;;;;5099624;28;20040;-85
2023/01/11 04:16:19;;;;;;;0.00;0.00;;;10.30;99.90;;;;;;5100731;28;20119;-84
2023/01/11 04:18:45;;;;;;;0.00;0.00;;;10.30;99.90;;;;;;5099977;28;20479;-84
2023/01/11 04:21:11;;;;;;;0.00;0.00;;;10.30;99.90;;;;;;5100336;28;20104;-85
2023/01/11 04:23:36;;;;;;;0.00;0.00;;;10.40;99.90;;;;;;5099935;28;20060;-85
2023/01/11 04:26:02;;;;;;;0.00;0.00;;;10.40;99.90;;;;;;5100407;28;20044;-85
2023/01/11 04:28:27;;;;;;;0.25;0.20;;;10.40;99.90;;;;;;5099235;28;20051;-84
2023/01/11 04:30:53;;;;;;;0.00;0.00;;;10.40;99.90;;;;;;5098785;28;20051;-85
2023/01/11 04:33:18;;;;;;;0.00;0.00;;;10.50;99.90;;;;;;5098380;28;20043;-84
2023/01/11 04:35:44;;;;;;;0.00;0.00;;;10.50;99.90;;;;;;5098782;28;20096;-85
2023/01/11 04:38:10;;;;;;;0.03;0.03;;;10.50;99.90;;;;;;5098784;28;20502;-84
2023/01/11 04:40:36;;;;;;;0.00;0.00;;;10.40;99.90;;;;;;5099589;28;20402;-85
2023/01/11 04:43:01;;;;;;;0.00;0.00;;;10.40;99.90;;;;;;5099165;28;20040;-84
2023/01/11 04:45:28;;;;;;;0.10;0.10;;;10.50;99.90;;;;;;5099250;28;20448;-85
2023/01/11 04:47:55;;;;;;;1.95;1.10;;;10.60;99.90;;;;;;5098952;28;20036;-84
2023/01/11 04:50:22;;;;;;;0.00;0.00;;;10.50;99.90;;;;;;5098807;28;20063;-85
2023/01/11 04:52:48;;;;;;;0.00;0.00;;;10.50;99.90;;;;;;5098618;28;20048;-84
2023/01/11 04:55:14;;;;;;;0.32;0.25;;;10.60;99.90;;;;;;5079025;28;20050;-86
2023/01/11 04:57:39;;;;;;;1.13;1.10;;;10.60;99.90;;;;;;5096678;28;20568;-85
2023/01/11 05:00:09;;;;;;;0.52;0.52;;;10.60;99.90;;;;;;5096617;28;20111;-84
2023/01/11 05:02:38;;;;;;;0.80;0.63;;;10.60;99.90;;;;;;5096107;28;20363;-84
2023/01/11 05:05:05;;;;;;;0.57;0.55;;;10.60;99.90;;;;;;5076298;28;20384;-84
2023/01/11 05:07:31;;;;;;;0.13;0.10;;;10.60;99.90;;;;;;5085878;28;20101;-84
2023/01/11 05:09:57;;;;;;;1.80;1.70;;;10.60;99.90;;;;;;5096225;28;20044;-84
2023/01/11 05:12:23;;;;;;;0.00;0.00;;;10.60;99.90;;;;;;5096548;28;20105;-85
2023/01/11 05:14:49;;;;;;;0.93;0.80;;;10.60;99.90;;;;;;5095899;28;20040;-84
2023/01/11 05:17:15;;;;;;;2.75;1.02;;;10.50;99.90;;;;;;5095885;28;20051;-84
2023/01/11 05:19:42;;;;;;;1.45;0.73;;;10.60;99.90;;;;;;5095176;28;20040;-84
2023/01/11 05:22:08;;;;;;;0.00;0.00;;;10.50;99.90;;;;;;5096305;28;20044;-84
2023/01/11 05:24:35;;;;;;;0.38;0.38;;;10.40;99.90;;;;;;5096166;28;20044;-85
2023/01/11 05:27:00;;;;;;;0.13;0.13;;;10.50;99.90;;;;;;5095648;28;20140;-84
2023/01/11 05:29:27;;;;;;;0.10;0.10;;;10.40;99.90;;;;;;5095496;28;20177;-84
2023/01/11 05:31:53;;;;;;;0.40;0.20;;;10.30;99.90;;;;;;5095398;28;20075;-84
2023/01/11 05:34:19;;;;;;;0.80;0.63;;;10.30;99.90;;;;;;5095319;28;20716;-84
2023/01/11 05:36:44;;;;;;;1.38;0.70;;;10.30;99.90;;;;;;5093838;28;20044;-84
2023/01/11 05:39:11;;;;;;;0.35;0.25;;;10.30;99.90;;;;;;5097385;28;20046;-83
2023/01/11 05:41:37;;;;;;;0.28;0.28;;;10.30;99.90;;;;;;5098558;28;20340;-84
2023/01/11 05:46:48;;;;;;;2.50;1.00;;;10.20;99.90;;;;;;5098130;28;20058;-84
2023/01/11 05:49:13;;;;;;;0.47;0.22;;;10.20;99.90;;;;;;5098006;28;20083;-85
2023/01/11 05:51:40;;;;;;;1.08;0.47;;;10.10;99.90;;;;;;5097728;28;20118;-84
2023/01/11 05:54:09;;;;;;;0.22;0.22;;;10.10;99.90;;;;;;5098140;28;20054;-84
2023/01/11 05:56:34;;;;;;;0.20;0.17;;;10.70;99.90;;;;;;5097485;28;20082;-84
2023/01/11 05:59:02;;;;;;;0.10;0.10;;;10.00;99.90;;;;;;5097396;28;20036;-83
2023/01/11 06:01:28;;;;;;;0.08;0.08;;;10.00;99.90;;;;;;5097018;28;20115;-85
2023/01/11 06:03:53;;;;;;;0.25;0.25;;;10.00;99.90;;;;;;5096902;28;20090;-83
2023/01/11 06:06:19;;;;;;;0.00;0.00;;;10.40;99.90;;;;;;5096841;28;20047;-84
2023/01/11 06:08:45;;;;;;;0.43;0.35;;;10.50;99.90;;;;;;5096609;28;20044;-84
2023/01/11 06:11:11;;;;;;;1.40;1.02;;;9.90;99.90;;;;;;5097187;28;20036;-84
2023/01/11 06:13:37;;;;;;;0.45;0.45;;;9.90;99.90;;;;;;5097064;28;20114;-85
2023/01/11 06:16:05;;;;;;;0.43;0.30;;;9.90;99.90;;;;;;5097003;28;20372;-84
2023/01/11 06:18:33;;;;;;;16.55;3.22;;;9.80;99.90;;;;;;5096873;28;20044;-85
2023/01/11 06:21:00;;;;;;;0.15;0.15;;;9.80;99.90;;;;;;5095798;28;20095;-84
2023/01/11 06:23:27;;;;;;;0.00;0.00;;;9.70;99.90;;;;;;5097023;28;20051;-84
2023/01/11 06:25:52;;;;;;;2.05;0.30;;;9.60;99.90;;;;;;5096360;28;20055;-84
2023/01/11 06:28:18;;;;;;;0.43;0.32;;;9.60;99.90;;;;;;5096610;28;20384;-84
2023/01/11 06:30:50;;;;;;;0.45;0.45;;;9.70;99.90;;;;;;5095569;28;20044;-84
2023/01/11 06:33:16;;;;;;;0.38;0.38;;;9.50;99.90;;;;;;5096478;28;20491;-84
2023/01/11 06:35:42;;;;;;;0.73;0.73;;;9.70;99.90;;;;;;5096402;28;20047;-84
2023/01/11 06:38:13;;;;;;;0.10;0.10;;;9.40;99.90;;;;;;5095825;28;20048;-84
2023/01/11 06:40:40;;;;;;;0.28;0.28;;;9.30;99.90;;;;;;5096148;28;20149;-83
2023/01/11 06:43:07;;;;;;;0.30;0.20;;;9.20;99.90;;;;;;5096628;28;20526;-83
2023/01/11 06:45:33;;;;;;;0.80;0.75;;;9.10;99.90;;;;;;5096666;28;20061;-84
2023/01/11 06:47:58;;;;;;;0.22;0.22;;;9.20;99.90;;;;;;5096736;28;20043;-84
2023/01/11 06:50:25;;;;;;;4.70;1.63;;;9.20;99.90;;;;;;5096739;28;20055;-84
2023/01/11 06:53:00;;;;;;;0.73;0.68;;;9.20;99.90;;;;;;5096962;28;20052;-84
2023/01/11 06:55:27;;;;;;;0.38;0.38;;;9.30;99.90;;;;;;5095627;28;20483;-83
2023/01/11 06:57:53;;;;;;;0.00;0.00;;;9.20;99.90;;;;;;5096491;28;20074;-84
2023/01/11 07:00:19;;;;;;;1.65;0.70;;;9.20;99.90;;;;;;5096758;28;20044;-84
2023/01/11 07:02:46;;;;;;;0.00;0.00;;;9.10;99.90;;;;;;5097244;28;20071;-83
2023/01/11 07:05:12;;;;;;;1.13;0.40;;;9.10;99.90;;;;;;5099266;28;20134;-83
2023/01/11 07:07:39;;;;;;;0.65;0.50;;;9.00;99.90;;;;;;5099294;28;20064;-83
2023/01/11 07:10:07;;;;;;;0.00;0.00;;;9.30;99.90;;;;;;5098682;28;20072;-84
2023/01/11 07:12:34;;;;;;;0.70;0.13;;;9.10;99.90;;;;;;5098654;28;20040;-84
2023/01/11 07:15:00;;;;;;;0.10;0.08;;;9.10;99.90;;;;;;5097476;28;20119;-84
2023/01/11 07:17:25;;;;;;;0.00;0.00;;;9.20;99.90;;;;;;5098025;28;20067;-84
2023/01/11 07:19:51;;;;;;;3.65;0.82;;;9.20;99.90;;;;;;5097551;28;20043;-84
2023/01/11 07:22:17;;;;;;;0.00;0.00;;;9.10;99.90;;;;;;5097465;28;20101;-84
2023/01/11 07:24:42;;;;;;;2.78;1.85;;;9.10;99.90;;;;;;5097385;28;20111;-83
2023/01/11 07:27:08;;;;;;;4.18;1.33;;;9.50;99.90;;;;;;5098294;28;20040;-84
2023/01/11 07:29:33;;;;;;;18.70;0.68;;;9.00;99.90;;;;;;5093712;28;20112;-83
2023/01/11 07:31:59;;;;;;;0.20;0.20;;;8.90;99.90;;;;;;5093393;28;20040;-83
2023/01/11 07:34:25;;;;;;;0.30;0.30;;;8.90;99.90;;;;;;5093329;28;20035;-82
2023/01/11 07:36:51;;;;;;;0.00;0.00;;;8.90;99.90;;;;;;5093027;28;20032;-83
2023/01/11 07:39:16;;;;;;;1.13;0.57;;;8.90;99.90;;;;;;5093268;28;20475;-83
2023/01/11 07:44:26;;;;;;;0.08;0.08;;;8.90;99.90;;;;;;5093209;28;20109;-83
2023/01/11 07:46:51;;;;;;;1.10;0.98;;;8.90;99.90;;;;;;5093049;28;20044;-83
2023/01/11 07:49:17;;;;;;;15.35;0.70;;;8.90;99.90;;;;;;5093015;28;20494;-83
2023/01/11 07:51:43;;;;;;;1.20;0.85;;;9.00;99.90;;;;;;5092895;28;20044;-83
2023/01/11 07:54:08;;;;;;;0.00;0.00;;;9.00;99.90;;;;;;5093155;28;20043;-83
2023/01/11 07:56:34;;;;;;;0.00;0.00;;;9.10;99.90;;;;;;5093161;28;20043;-83
2023/01/11 07:58:59;;;;;;;0.75;0.38;;;9.10;99.90;;;;;;5091580;28;20039;-83
2023/01/11 08:01:25;;;;;;;2.15;0.60;;;9.10;99.90;;;;;;5092826;28;20040;-83
2023/01/11 08:03:51;;;;;;;0.00;0.00;;;9.10;99.90;;;;;;5092835;28;20510;-83
2023/01/11 08:06:16;;;;;;;0.00;0.00;;;9.10;99.90;;;;;;5092840;28;20071;-83
2023/01/11 08:08:43;;;;;;;0.00;0.00;;;9.10;99.90;;;;;;5092634;28;20517;-83
2023/01/11 08:16:37;;;;;;;0.30;0.30;;;9.10;99.90;;;;;;5091606;28;20060;-83
2023/01/11 08:19:03;;;;;;;0.00;0.00;;;9.10;99.90;;;;;;5092659;28;20048;-83
2023/01/11 08:21:29;;;;;;;0.55;0.40;;;9.10;99.90;;;;;;5091412;28;20055;-83
2023/01/11 08:23:57;;;;;;;0.13;0.13;;;10.30;99.90;;;;;;5092507;28;20055;-83
2023/01/11 08:26:24;;;;;;;0.00;0.00;;;9.10;99.90;;;;;;5092447;28;20448;-83
2023/01/11 08:28:50;;;;;;;0.43;0.43;;;9.00;99.90;;;;;;5092805;28;20048;-83
2023/01/11 08:31:16;;;;;;;0.52;0.52;;;8.80;99.90;;;;;;5092502;28;20388;-83
2023/01/11 08:33:41;;;;;;;0.00;0.00;;;8.70;99.90;;;;;;5092473;28;20042;-83
2023/01/11 08:36:09;;;;;;;0.95;0.60;;;8.70;99.90;;;;;;5099807;28;20101;-83
2023/01/11 08:38:34;;;;;;;0.00;0.00;;;8.50;99.90;;;;;;5105434;28;20070;-83
2023/01/11 08:41:01;;;;;;;0.28;0.28;;;8.50;99.90;;;;;;5099996;28;20044;-83
2023/01/11 08:43:30;;;;;;;0.30;0.20;;;8.40;99.90;;;;;;5093892;28;20044;-83
2023/01/11 08:45:56;;;;;;;0.00;0.00;;;8.30;99.90;;;;;;5092618;28;20080;-83
2023/01/11 08:48:22;;;;;;;0.05;0.03;;;8.30;99.90;;;;;;5092552;28;20468;-83
2023/01/11 08:50:47;;;;;;;1.00;0.73;;;8.20;99.90;;;;;;5092345;28;20091;-83
2023/01/11 08:53:14;;;;;;;0.00;0.00;;;8.10;99.90;;;;;;5092370;28;20114;-83
2023/01/11 08:55:42;;;;;;;18.38;0.52;;;8.00;99.90;;;;;;5094620;28;20079;-83
2023/01/11 08:58:07;;;;;;;1.35;0.65;;;8.10;99.90;;;;;;5096030;28;20043;-83
2023/01/11 09:00:33;;;;;;;0.10;0.10;;;8.10;99.90;;;;;;5096025;28;20043;-83
2023/01/11 09:03:02;;;;;;;0.00;0.00;;;8.00;99.90;;;;;;5095713;28;20055;-83
2023/01/11 09:05:27;;;;;;;0.00;0.00;;;8.00;99.90;;;;;;5095890;28;20123;-83
2023/01/11 09:07:56;;;;;;;0.00;0.00;;;7.90;99.90;;;;;;5095980;28;20129;-83
2023/01/11 09:10:26;;;;;;;0.25;0.25;;;7.80;99.90;;;;;;5095675;28;20514;-83
2023/01/11 09:12:55;;;;;;;0.00;0.00;;;7.80;99.90;;;;;;5095582;28;20044;-83
2023/01/11 09:15:22;;;;;;;0.00;0.00;;;7.90;99.90;;;;;;5094527;28;20055;-83
2023/01/11 09:17:48;;;;;;;0.30;0.30;;;8.00;99.90;;;;;;5095516;28;20036;-83
2023/01/11 09:20:14;;;;;;;0.00;0.00;;;8.00;99.90;;;;;;5095673;28;20044;-83
2023/01/11 09:22:39;;;;;;;0.10;0.10;;;8.00;99.90;;;;;;5095646;28;20044;-83
2023/01/11 09:25:06;;;;;;;0.00;0.00;;;8.00;99.90;;;;;;5095626;28;20040;-83
2023/01/11 09:27:32;;;;;;;0.25;0.10;;;8.00;99.90;;;;;;5095432;28;20039;-83
2023/01/11 09:29:58;;;;;;;0.00;0.00;;;8.10;99.90;;;;;;5095395;28;20425;-83
2023/01/11 09:32:23;;;;;;;1.58;0.30;;;8.10;99.90;;;;;;5095012;28;20093;-83
2023/01/11 09:34:52;;;;;;;0.08;0.08;;;8.20;99.90;;;;;;5095152;28;20543;-83
2023/01/11 09:37:18;;;;;;;0.00;0.00;;;8.20;99.90;;;;;;5095231;28;20516;-83
2023/01/11 09:39:45;;;;;;;0.00;0.00;;;8.20;99.90;;;;;;5093982;28;20153;-83
2023/01/11 09:42:31;;;;;;;0.52;0.38;;;8.30;99.90;;;;;;5095240;28;20073;-83
2023/01/11 09:45:10;;;;;;;2.28;0.80;;;8.30;99.90;;;;;;5095294;28;20050;-83
2023/01/11 09:48:10;;;;;;;0.00;0.00;;;8.40;99.90;;;;;;5095031;28;20044;-83
2023/01/11 09:50:42;;;;;;;0.00;0.00;;;8.50;99.90;;;;;;5095177;28;20054;-83
2023/01/11 09:53:17;;;;;;;0.00;0.00;;;8.60;99.90;;;;;;5094934;28;20094;-83
2023/01/11 09:55:48;;;;;;;0.00;0.00;;;8.60;99.90;;;;;;5095515;28;20036;-83
2023/01/11 09:58:21;;;;;;;0.10;0.10;;;8.50;99.90;;;;;;5095030;28;20040;-83
2023/01/11 10:00:59;;;;;;;0.10;0.10;;;8.50;99.90;;;;;;5095188;28;20141;-83
2023/01/11 10:03:53;;;;;;;0.00;0.00;;;8.40;99.90;;;;;;5094942;28;20556;-83
2023/01/11 10:06:42;;;;;;;0.00;0.00;;;8.40;99.90;;;;;;5094625;28;20119;-83
2023/01/11 10:09:28;;;;;;;0.28;0.22;;;8.40;99.90;;;;;;5086254;28;20097;-83
2023/01/11 10:12:25;;;;;;;0.10;0.10;;;8.30;99.90;;;;;;5094978;28;20066;-83
2023/01/11 10:15:19;;;;;;;0.00;0.00;;;8.40;99.90;;;;;;5086233;28;20160;-83
2023/01/11 10:18:12;;;;;;;0.03;0.03;;;8.40;99.90;;;;;;5094736;28;20047;-83
2023/01/11 10:20:50;;;;;;;0.05;0.05;;;8.50;99.90;;;;;;5094486;28;20059;-83
2023/01/11 10:23:24;;;;;;;0.00;0.00;;;8.50;99.90;;;;;;5094447;28;20399;-83
2023/01/11 10:25:55;;;;;;;0.00;0.00;;;8.50;99.90;;;;;;5094272;28;20056;-83
2023/01/11 10:28:42;;;;;;;1.17;0.20;;;8.50;99.90;;;;;;5094539;28;20048;-83
2023/01/11 10:31:27;;;;;;;;;;;8.50;99.90;;;;;;5095100;28;20055;-83
2023/01/11 10:34:23;;;;;;;3.20;1.45;;;8.50;99.90;;;;;;5094382;28;19927;-83
2023/01/11 10:37:15;;;;;;;0.03;0.03;;;8.60;99.90;;;;;;5093922;28;20492;-83
2023/01/11 10:42:29;;;;;;;0.75;0.45;;;8.70;99.90;;;;;;5094537;28;20048;-83
2023/01/11 10:45:24;;;;;;;0.00;0.00;;;8.70;99.90;;;;;;5094130;28;20046;-83
2023/01/11 10:48:19;;;;;;;4.03;1.77;;;9.00;99.90;;;;;;5093424;28;20060;-83
2023/01/11 10:51:09;;;;;;;0.00;0.00;;;9.20;99.90;;;;;;5088434;28;20134;-83
2023/01/11 10:53:42;;;;;;;0.00;0.00;;;9.40;99.90;;;;;;5093638;28;20059;-83
2023/01/11 10:56:38;;;;;;;0.00;0.00;;;9.60;99.90;;;;;;5092912;28;20052;-84
2023/01/11 10:59:33;;;;;;;2.08;0.40;;;9.60;99.90;;;;;;5093905;28;20061;-83
2023/01/11 11:02:26;;;;;;;0.73;0.65;;;9.60;99.90;;;;;;5093467;28;20079;-83
2023/01/11 11:05:14;;;;;;;0.00;0.00;;;9.70;99.90;;;;;;5093874;28;20087;-83
2023/01/11 11:07:52;;;;;;;0.20;0.20;;;9.60;99.90;;;;;;5093435;28;20040;-83
2023/01/11 11:10:31;;;;;;;0.00;0.00;;;9.60;99.90;;;;;;5093859;28;20165;-83
2023/01/11 11:13:20;;;;;;;0.08;0.00;;;9.80;99.90;;;;;;5092456;28;20227;-83
2023/01/11 11:16:11;;;;;;;3.80;1.70;;;9.80;99.90;;;;;;5094197;28;20044;-83
2023/01/11 11:18:38;;;;;;;1.00;0.77;;;9.80;1.00;;;;;;5092434;28;20091;-83
2023/01/11 11:21:14;;;;;;;0.28;0.17;;;9.90;99.90;;;;;;5093413;28;20047;-83
2023/01/11 11:23:39;;;;;;;0.00;0.00;;;9.90;29.20;;;;;;5093696;28;20111;-83
2023/01/11 11:26:06;;;;;;;0.00;0.00;;;10.00;99.90;;;;;;5093659;28;20512;-83
2023/01/11 11:28:32;;;;;;;4.28;0.75;;;10.00;99.90;;;;;;5092183;28;20048;-83
2023/01/11 11:31:01;;;;;;;0.10;0.10;;;10.00;99.90;;;;;;5093600;28;20044;-83
2023/01/11 11:33:35;;;;;;;0.22;0.20;;;10.00;1.00;;;;;;5093124;28;20047;-83
2023/01/11 11:36:09;;;;;;;0.20;0.20;;;10.10;99.90;;;;;;5093416;28;20040;-83
2023/01/11 11:38:40;;;;;;;0.00;0.00;;;10.20;1.00;;;;;;5093269;28;20055;-83
2023/01/11 11:41:11;;;;;;;0.15;0.05;;;10.50;1.00;;;;;;5093177;28;20044;-83
2023/01/11 11:43:42;;;;;;;9.07;1.55;;;10.70;99.90;;;;;;5093325;28;20086;-83
2023/01/11 11:46:14;;;;;;;0.63;0.40;;;10.90;99.90;;;;;;5093126;28;20070;-83
2023/01/11 11:48:41;;;;;;;2.17;1.08;;;11.00;93.60;;;;;;5092750;28;20525;-83
2023/01/11 11:51:19;;;;;;;2.00;1.35;;;11.20;1.00;;;;;;5093426;28;20040;-83
2023/01/11 11:53:53;;;;;;;0.50;0.47;;;11.30;1.00;;;;;;5093204;28;20047;-83
2023/01/11 11:56:36;;;;;;;0.82;0.82;;;11.60;99.90;;;;;;5093336;28;20052;-83
2023/01/11 11:59:08;;;;;;;0.17;0.17;;;11.60;99.90;;;;;;5093464;28;20055;-83
2023/01/11 12:01:39;;;;;;;0.43;0.43;;;11.60;99.90;;;;;;5093236;28;20043;-83
2023/01/11 12:04:15;;;;;;;0.00;0.00;;;11.50;99.90;;;;;;5093366;28;20081;-83
2023/01/11 12:06:41;;;;;;;0.25;0.25;;;11.30;99.90;;;;;;5093001;28;20040;-83
2023/01/11 12:09:29;;;;;;;0.85;0.20;;;11.20;99.90;;;;;;5093162;28;20498;-83
2023/01/11 12:11:55;;;;;;;1.98;0.40;;;10.90;1.00;;;;;;5092952;28;20063;-83
2023/01/11 12:14:27;;;;;;;2.65;0.65;;;10.90;99.90;;;;;;5093051;28;20068;-83
2023/01/11 12:16:52;;;;;;;0.10;0.10;;;10.80;99.90;;;;;;5092856;28;20048;-83
2023/01/11 12:19:34;;;;;;;2.20;0.38;;;10.90;99.90;;;;;;5093275;28;20040;-83
2023/01/11 12:22:15;;;;;;;0.70;0.60;;;11.00;90.10;;;;;;5093137;28;20040;-83
2023/01/11 12:24:41;;;;;;;6.63;1.75;;;10.90;99.90;;;;;;5094438;28;20505;-83
2023/01/11 12:27:41;;;;;;;0.98;0.70;;;10.90;99.90;;;;;;5096747;28;20036;-83
2023/01/11 12:30:37;;;;;;;0.25;0.25;;;11.00;99.90;;;;;;5099527;28;20097;-84
2023/01/11 12:33:38;;;;;;;5.38;1.67;;;11.00;99.90;;;;;;5100087;28;20076;-83
2023/01/11 12:36:41;;;;;;;6.03;0.77;;;10.90;99.90;;;;;;5100638;28;20070;-83
2023/01/11 12:39:37;;;;;;;3.83;0.93;;;10.70;99.90;;;;;;5100270;28;20045;-84
2023/01/11 12:42:08;;;;;;;0.00;0.00;;;10.80;99.90;;;;;;5100336;28;20036;-83
2023/01/11 12:45:00;;;;;;;0.00;0.00;;;10.70;77.90;;;;;;5100414;28;20176;-83
2023/01/11 12:47:54;;;;;;;0.10;0.10;;;10.60;1.00;;;;;;5100000;28;20048;-84
2023/01/11 12:50:28;;;;;;;2.85;1.85;;;10.60;8.40;;;;;;5099684;28;20131;-83
2023/01/11 12:53:09;;;;;;;24.45;3.13;;;10.40;1.00;;;;;;5099830;28;20054;-82
2023/01/11 12:55:50;;;;;;;0.32;0.32;;;10.30;99.90;;;;;;5100347;28;20093;-84
2023/01/11 12:58:15;;;;;;;0.55;0.55;;;10.30;1.00;;;;;;5099998;28;20078;-84
2023/01/11 13:00:56;;;;;;;0.32;0.32;;;10.40;8.60;;;;;;5099926;28;20064;-83
2023/01/11 13:03:46;;;;;;;0.00;0.00;;;10.30;99.90;;;;;;5099999;28;20085;-84
2023/01/11 13:06:40;;;;;;;0.13;0.13;;;10.20;99.90;;;;;;5100622;28;20048;-83
2023/01/11 13:09:30;;;;;;;0.30;0.28;;;10.10;99.90;;;;;;5099615;28;20078;-84
2023/01/11 13:12:07;;;;;;;0.00;0.00;;;10.10;1.00;;;;;;5099705;28;20048;-83
2023/01/11 13:15:17;;;;;;;2.67;1.33;;;10.20;18.60;;;;;;5099816;28;20115;-83
2023/01/11 13:18:00;;;;;;;0.20;0.20;;;10.40;99.90;;;;;;5099175;28;20040;-84
2023/01/11 13:20:32;;;;;;;1.02;0.90;;;10.50;79.50;;;;;;5099271;28;20044;-84
2023/01/11 13:23:10;;;;;;;0.00;0.00;;;10.40;99.90;;;;;;5099260;28;20099;-83
2023/01/11 13:25:40;;;;;;;10.02;1.00;;;10.40;99.90;;;;;;5100149;28;20495;-83
2023/01/11 13:28:27;;;;;;;0.95;0.45;;;10.40;99.90;;;;;;5100041;28;20119;-82
2023/01/11 13:30:53;;;;;;;0.22;0.22;;;10.30;99.90;;;;;;5099924;28;20047;-83
2023/01/11 13:33:25;;;;;;;11.32;0.70;;;10.30;99.90;;;;;;5100419;28;20036;-83
2023/01/11 13:36:02;;;;;;;0.70;0.45;;;10.20;99.90;;;;;;5100145;28;20101;-83
2023/01/11 13:38:38;;;;;;;0.47;0.47;;;10.30;86.20;;;;;;5099779;28;20499;-83
2023/01/11 13:41:24;;;;;;;;;;;10.40;99.90;;;;;;5100151;28;20047;-83
2023/01/11 13:44:14;;;;;;;0.00;0.00;;;10.50;99.90;;;;;;5099718;28;19932;-83
2023/01/11 13:47:01;;;;;;;1.77;0.63;;;10.70;90.30;;;;;;5098972;28;20071;-83
2023/01/11 13:49:54;;;;;;;0.50;0.40;;;10.90;1.00;;;;;;5098691;28;20060;-83